createdAt,value
2022-11-13T00:00:37.695Z,16.8
2022-11-13T00:02:56.016Z,16.9
2022-11-13T00:07:32.580Z,16.9
2022-11-13T00:09:50.653Z,17.1
2022-11-13T00:12:09.239Z,16.9
2022-11-13T00:19:03.652Z,16.6
2022-11-13T00:21:21.844Z,17.1
2022-11-13T00:23:40.180Z,16.9
2022-11-13T00:25:58.234Z,17.1
2022-11-13T00:28:16.718Z,17.1
2022-11-13T00:30:34.724Z,16.9
2022-11-13T00:35:53.085Z,16.7
2022-11-13T00:38:11.091Z,17.1
2022-11-13T00:40:29.329Z,16.9
2022-11-13T00:42:48.058Z,16.9
2022-11-13T00:45:06.314Z,17.5
2022-11-13T00:47:24.355Z,17.1
2022-11-13T00:49:42.506Z,16.9
2022-11-13T00:52:01.273Z,16.9
2022-11-13T00:54:19.437Z,17.8
2022-11-13T00:56:37.576Z,16.6
2022-11-13T01:01:14.074Z,16.4
2022-11-13T01:03:31.999Z,16.9
2022-11-13T01:05:50.096Z,16.7
2022-11-13T01:08:08.416Z,16.9
2022-11-13T01:10:26.264Z,16.6
2022-11-13T01:12:44.504Z,16.7
2022-11-13T01:15:02.526Z,16.9
2022-11-13T01:17:20.767Z,16.8
2022-11-13T01:19:39.421Z,17.1
2022-11-13T01:21:57.548Z,17.5
2022-11-13T01:24:15.722Z,17.1
2022-11-13T01:26:33.824Z,16.9
2022-11-13T01:28:52.633Z,16.8
2022-11-13T01:31:11.331Z,17.6
2022-11-13T01:33:29.661Z,17.8
2022-11-13T01:35:47.676Z,16.9
2022-11-13T01:38:05.904Z,16.6
2022-11-13T01:40:24.033Z,16.5
2022-11-13T01:45:00.393Z,16.8
2022-11-13T01:47:18.479Z,16.9
2022-11-13T01:49:36.709Z,16.6
2022-11-13T01:51:55.442Z,16.8
2022-11-13T01:54:14.316Z,17.6
2022-11-13T01:56:32.215Z,17.6
2022-11-13T01:58:50.358Z,16.9
2022-11-13T02:01:08.569Z,16.8
2022-11-13T02:03:26.681Z,16.9
2022-11-13T02:05:44.898Z,16.9
2022-11-13T02:08:03.065Z,16.6
2022-11-13T02:10:21.627Z,16.8
2022-11-13T02:12:39.871Z,17.6
2022-11-13T02:14:57.978Z,16.9
2022-11-13T02:19:34.996Z,16.7
2022-11-13T02:21:53.877Z,17.6
2022-11-13T02:24:11.917Z,17.8
2022-11-13T02:26:30.634Z,16.9
2022-11-13T02:28:49.572Z,17.7
2022-11-13T02:31:07.671Z,17.8
2022-11-13T02:33:26.440Z,16.8
2022-11-13T02:35:45.200Z,18.1
2022-11-13T02:38:03.425Z,17.9
2022-11-13T02:40:21.734Z,16.9
2022-11-13T02:42:39.675Z,16.6
2022-11-13T02:44:58.039Z,16.9
2022-11-13T02:47:16.568Z,17.2
2022-11-13T02:49:34.797Z,17.5
2022-11-13T02:51:52.878Z,16.9
2022-11-13T02:54:15.671Z,16.5
2022-11-13T02:56:29.224Z,16.8
2022-11-13T02:58:47.351Z,16.9
2022-11-13T03:01:05.562Z,16.7
2022-11-13T03:03:48.007Z,16.8
2022-11-13T03:06:17.975Z,16.8
2022-11-13T03:08:36.815Z,16.6
2022-11-13T03:10:54.375Z,16.6
2022-11-13T03:13:12.298Z,16.8
2022-11-13T03:15:30.413Z,16.6
2022-11-13T03:17:48.638Z,16.8
2022-11-13T03:20:07.321Z,16.9
2022-11-13T03:22:25.496Z,17.6
2022-11-13T03:24:43.591Z,16.9
2022-11-13T03:27:01.996Z,17.1
2022-11-13T03:31:38.260Z,16.8
2022-11-13T03:33:56.175Z,16.6
2022-11-13T03:36:14.370Z,16.7
2022-11-13T03:38:32.511Z,16.8
2022-11-13T03:40:51.249Z,16.5
2022-11-13T03:43:09.587Z,17.8
2022-11-13T03:45:27.603Z,16.9
2022-11-13T03:47:45.679Z,16.8
2022-11-13T03:50:03.884Z,16.9
2022-11-13T03:52:21.998Z,16.9
2022-11-13T03:54:40.100Z,17.3
2022-11-13T03:56:58.262Z,16.8
2022-11-13T03:59:16.535Z,16.9
2022-11-13T04:01:34.555Z,16.8
2022-11-13T04:03:52.696Z,16.9
2022-11-13T04:06:10.859Z,16.8
2022-11-13T04:08:29.203Z,16.9
2022-11-13T04:10:47.059Z,16.8
2022-11-13T04:13:05.221Z,17.1
2022-11-13T04:15:23.998Z,16.9
2022-11-13T04:17:43.063Z,17.6
2022-11-13T04:20:00.999Z,17.8
2022-11-13T04:22:19.822Z,16.8
2022-11-13T04:24:37.944Z,18.1
2022-11-13T04:26:56.641Z,16.8
2022-11-13T04:29:15.431Z,17.9
2022-11-13T04:31:33.790Z,17.9
2022-11-13T04:33:51.763Z,16.6
2022-11-13T04:36:09.979Z,17.1
2022-11-13T04:38:29.073Z,17.1
2022-11-13T04:40:46.981Z,17.8
2022-11-13T04:43:05.113Z,16.8
2022-11-13T04:45:23.309Z,17.2
2022-11-13T04:49:59.604Z,16.4
2022-11-13T04:52:18.350Z,16.9
2022-11-13T04:54:37.150Z,17.6
2022-11-13T04:56:55.436Z,17.9
2022-11-13T04:59:13.512Z,16.9
2022-11-13T05:01:32.289Z,16.8
2022-11-13T05:03:50.671Z,18.1
2022-11-13T05:06:08.608Z,16.8
2022-11-13T05:08:27.034Z,16.8
2022-11-13T05:10:44.867Z,17.3
2022-11-13T05:13:02.993Z,17.2
2022-11-13T05:15:21.269Z,16.9
2022-11-13T05:17:39.932Z,16.8
2022-11-13T05:19:58.130Z,17.7
2022-11-13T05:22:16.304Z,17.2
2022-11-13T05:26:52.572Z,16.6
2022-11-13T05:29:10.733Z,16.9
2022-11-13T05:31:29.520Z,16.7
2022-11-13T05:33:47.617Z,17.7
2022-11-13T05:36:06.466Z,16.9
2022-11-13T05:38:25.171Z,18.1
2022-11-13T05:40:42.793Z,16.9
2022-11-13T05:45:19.074Z,16.9
2022-11-13T05:47:37.217Z,16.8
2022-11-13T05:49:55.656Z,16.9
2022-11-13T05:52:14.168Z,16.9
2022-11-13T05:54:32.495Z,17.8
2022-11-13T05:56:50.653Z,17.2
2022-11-13T06:01:27.095Z,16.8
2022-11-13T06:03:45.748Z,17.3
2022-11-13T06:06:03.868Z,17.9
2022-11-13T06:08:22.114Z,16.8
2022-11-13T06:12:58.531Z,16.6
2022-11-13T06:15:16.558Z,16.8
2022-11-13T06:17:34.675Z,16.8
2022-11-13T06:19:53.416Z,16.8
2022-11-13T06:22:11.660Z,18
2022-11-13T06:24:29.826Z,16.8
2022-11-13T06:26:47.970Z,16.9
2022-11-13T06:29:06.218Z,17.3
2022-11-13T06:31:24.295Z,17.1
2022-11-13T06:33:42.434Z,16.9
2022-11-13T06:36:00.953Z,16.8
2022-11-13T06:38:19.430Z,16.9
2022-11-13T06:40:37.573Z,17.9
2022-11-13T06:42:55.757Z,16.9
2022-11-13T06:45:14.089Z,16.9
2022-11-13T06:47:32.106Z,16.6
2022-11-13T06:49:50.254Z,17.3
2022-11-13T06:52:09.037Z,17.1
2022-11-13T06:54:27.790Z,18
2022-11-13T06:56:46.093Z,17.9
2022-11-13T06:59:08.243Z,16.9
2022-11-13T07:01:23.147Z,17.9
2022-11-13T07:03:41.795Z,16.8
2022-11-13T07:06:00.012Z,18
2022-11-13T07:08:18.173Z,16.8
2022-11-13T07:10:36.933Z,17.1
2022-11-13T07:12:55.151Z,17.9
2022-11-13T07:15:14.010Z,16.9
2022-11-13T07:17:41.953Z,18.1
2022-11-13T07:20:00.117Z,16.8
2022-11-13T07:22:18.481Z,17.1
2022-11-13T07:24:36.370Z,16.6
2022-11-13T07:26:54.471Z,17.1
2022-11-13T07:29:12.792Z,16.7
2022-11-13T07:31:31.579Z,17.1
2022-11-13T07:33:49.868Z,18.1
2022-11-13T07:36:08.087Z,17.1
2022-11-13T07:38:26.547Z,17.2
2022-11-13T07:40:44.392Z,17.2
2022-11-13T07:43:02.647Z,17.1
2022-11-13T07:45:30.428Z,16.8
2022-11-13T07:47:48.880Z,17.1
2022-11-13T07:50:10.815Z,16.7
2022-11-13T07:54:43.838Z,17.9
2022-11-13T07:57:02.066Z,17.1
2022-11-13T07:59:20.166Z,17.2
2022-11-13T08:01:38.394Z,17.1
2022-11-13T08:03:56.551Z,17.1
2022-11-13T08:06:15.388Z,17.1
2022-11-13T08:08:33.505Z,18.2
2022-11-13T08:10:51.711Z,16.9
2022-11-13T08:13:09.729Z,17.3
2022-11-13T08:15:27.892Z,17.4
2022-11-13T08:17:46.277Z,17.3
2022-11-13T08:26:59.201Z,16.9
2022-11-13T08:29:17.283Z,17.1
2022-11-13T08:31:35.467Z,16.9
2022-11-13T08:33:53.862Z,17.1
2022-11-13T08:38:30.324Z,17.1
2022-11-13T08:40:48.161Z,17.3
2022-11-13T08:43:06.565Z,17.1
2022-11-13T08:45:24.943Z,17.3
2022-11-13T08:47:43.077Z,17.5
2022-11-13T08:50:01.802Z,17.1
2022-11-13T08:52:19.780Z,17.3
2022-11-13T08:54:38.088Z,17.3
2022-11-13T08:56:58.700Z,17.1
2022-11-13T08:59:14.980Z,17.4
2022-11-13T09:01:33.131Z,17.4
2022-11-13T09:03:51.461Z,17.6
2022-11-13T09:06:09.892Z,17.6
2022-11-13T09:08:28.474Z,17.4
2022-11-13T09:10:47.114Z,17.4
2022-11-13T09:13:05.567Z,18.6
2022-11-13T09:15:24.630Z,17.9
2022-11-13T09:17:42.210Z,17.4
2022-11-13T09:20:04.150Z,17.6
2022-11-13T09:22:19.585Z,17.5
2022-11-13T09:26:56.689Z,17.6
2022-11-13T09:29:15.095Z,17.6
2022-11-13T09:31:33.701Z,17.5
2022-11-13T09:33:51.872Z,17.6
2022-11-13T09:36:10.496Z,17.6
2022-11-13T09:38:28.886Z,17.6
2022-11-13T09:40:47.284Z,17.7
2022-11-13T09:43:05.488Z,17.8
2022-11-13T09:45:24.060Z,17.6
2022-11-13T09:47:42.507Z,18.1
2022-11-13T09:50:00.608Z,18.1
2022-11-13T09:52:19.232Z,18.1
2022-11-13T09:54:37.448Z,18.2
2022-11-13T09:56:56.495Z,18.4
2022-11-13T09:59:14.756Z,19.1
2022-11-13T10:01:33.471Z,18.1
2022-11-13T10:04:08.891Z,18.5
2022-11-13T10:06:25.151Z,18
2022-11-13T10:08:43.337Z,18.4
2022-11-13T10:11:01.610Z,18.6
2022-11-13T10:13:20.021Z,18.5
2022-11-13T10:15:38.297Z,18.4
2022-11-13T10:17:57.030Z,18.6
2022-11-13T10:20:14.985Z,18.6
2022-11-13T10:22:44.747Z,18.4
2022-11-13T10:25:03.018Z,18.4
2022-11-13T10:27:21.475Z,18.5
2022-11-13T10:30:04.393Z,18.4
2022-11-13T10:32:22.675Z,18.4
2022-11-13T10:34:41.072Z,18.6
2022-11-13T10:36:59.515Z,18.3
2022-11-13T10:39:17.748Z,18.3
2022-11-13T10:41:35.892Z,18.4
2022-11-13T10:43:54.136Z,18.4
2022-11-13T10:46:12.322Z,18.4
2022-11-13T10:48:52.573Z,18.5
2022-11-13T10:51:10.876Z,18.6
2022-11-13T10:53:29.346Z,18.4
2022-11-13T10:55:47.537Z,18.4
2022-11-13T10:58:06.212Z,18.3
2022-11-13T11:00:24.516Z,18.8
2022-11-13T11:02:42.847Z,18.1
2022-11-13T11:05:01.150Z,18.3
2022-11-13T11:07:38.717Z,18.5
2022-11-13T11:09:56.813Z,18.6
2022-11-13T11:12:14.880Z,18.4
2022-11-13T11:14:33.790Z,18.6
2022-11-13T11:16:52.039Z,19.1
2022-11-13T11:19:10.440Z,18.1
2022-11-13T11:21:29.109Z,18.3
2022-11-13T11:23:49.523Z,18.8
2022-11-13T11:26:05.904Z,17.9
2022-11-13T11:28:23.969Z,18.1
2022-11-13T11:30:42.206Z,18.3
2022-11-13T11:33:00.500Z,18.4
2022-11-13T11:35:19.261Z,18.3
2022-11-13T11:39:56.550Z,18.9
2022-11-13T11:42:14.854Z,17.9
2022-11-13T11:44:33.064Z,18.1
2022-11-13T11:46:51.349Z,18.2
2022-11-13T11:49:09.649Z,18.6
2022-11-13T11:51:27.961Z,18.5
2022-11-13T11:53:46.429Z,18.1
2022-11-13T11:56:04.531Z,18.1
2022-11-13T11:58:23.337Z,18.4
2022-11-13T12:00:42.219Z,18.9
2022-11-13T12:03:00.478Z,19.1
2022-11-13T12:05:20.213Z,17.9
2022-11-13T12:07:37.577Z,17.9
2022-11-13T12:09:56.410Z,18.8
2022-11-13T12:12:14.780Z,18.9
2022-11-13T12:14:33.103Z,17.8
2022-11-13T12:16:51.337Z,18.1
2022-11-13T12:19:09.698Z,18.2
2022-11-13T12:21:27.999Z,18.3
2022-11-13T12:23:46.219Z,18.3
2022-11-13T12:26:04.435Z,18.4
2022-11-13T12:28:22.699Z,18.1
2022-11-13T12:30:41.071Z,18.3
2022-11-13T12:32:59.332Z,18.4
2022-11-13T12:35:17.572Z,18.4
2022-11-13T12:37:35.972Z,18.2
2022-11-13T12:39:54.428Z,18.4
2022-11-13T12:42:12.533Z,18.3
2022-11-13T12:44:30.694Z,18.3
2022-11-13T12:46:49.190Z,18.3
2022-11-13T12:49:07.355Z,18.4
2022-11-13T12:51:25.552Z,18.3
2022-11-13T12:53:43.875Z,18.4
2022-11-13T12:56:02.203Z,18.2
2022-11-13T12:58:20.419Z,18.3
2022-11-13T13:01:02.609Z,18.4
2022-11-13T13:03:20.988Z,18.4
2022-11-13T13:05:39.174Z,18
2022-11-13T13:08:00.917Z,18.4
2022-11-13T13:10:15.774Z,18.3
2022-11-13T13:12:34.136Z,18.4
2022-11-13T13:14:52.355Z,18.3
2022-11-13T13:17:10.599Z,18.3
2022-11-13T13:19:29.043Z,18.4
2022-11-13T13:21:47.179Z,18.2
2022-11-13T13:24:05.458Z,18.1
2022-11-13T13:26:24.137Z,18.2
2022-11-13T13:31:01.591Z,18.9
2022-11-13T13:33:19.629Z,17.9
2022-11-13T13:35:38.022Z,18
2022-11-13T13:37:56.340Z,17.9
2022-11-13T13:40:14.564Z,18.3
2022-11-13T13:42:33.066Z,18.2
2022-11-13T13:44:51.263Z,18.1
2022-11-13T13:47:09.818Z,18.2
2022-11-13T13:49:28.035Z,18.2
2022-11-13T13:51:46.715Z,18.1
2022-11-13T13:54:05.416Z,18.1
2022-11-13T13:56:24.134Z,18.8
2022-11-13T13:58:43.341Z,19
2022-11-13T14:01:20.137Z,18.9
2022-11-13T14:03:37.738Z,17.8
2022-11-13T14:05:59.366Z,17.8
2022-11-13T14:08:14.444Z,18.1
2022-11-13T14:10:32.634Z,18.1
2022-11-13T14:12:50.914Z,18.2
2022-11-13T14:15:09.296Z,17.8
2022-11-13T14:17:27.453Z,18.2
2022-11-13T14:19:45.734Z,18
2022-11-13T14:22:04.092Z,18.3
2022-11-13T14:24:22.493Z,18.3
2022-11-13T14:26:40.849Z,18.1
2022-11-13T14:28:58.968Z,18.1
2022-11-13T14:31:17.358Z,18.1
2022-11-13T14:33:35.644Z,18.1
2022-11-13T14:35:53.927Z,18.1
2022-11-13T14:38:12.215Z,18.1
2022-11-13T14:40:30.526Z,17.9
2022-11-13T14:42:49.021Z,18.1
2022-11-13T14:45:07.075Z,17.9
2022-11-13T14:47:25.316Z,17.9
2022-11-13T14:49:43.671Z,17.8
2022-11-13T14:52:01.832Z,17.9
2022-11-13T14:54:20.797Z,17.9
2022-11-13T14:56:56.693Z,18.8
2022-11-13T14:59:19.493Z,17.5
2022-11-13T15:01:32.975Z,17.8
2022-11-13T15:03:51.286Z,17.6
2022-11-13T15:06:09.622Z,17.9
2022-11-13T15:08:28.627Z,17.8
2022-11-13T15:10:46.618Z,18.6
2022-11-13T15:13:04.949Z,17.8
2022-11-13T15:15:23.053Z,17.4
2022-11-13T15:17:41.277Z,17.8
2022-11-13T15:19:59.541Z,17.7
2022-11-13T15:22:32.347Z,17.7
2022-11-13T15:24:50.510Z,17.6
2022-11-13T15:27:09.195Z,17.8
2022-11-13T15:29:27.655Z,18.5
2022-11-13T15:31:45.848Z,17.5
2022-11-13T15:34:04.882Z,17.6
2022-11-13T15:36:23.039Z,18.8
2022-11-13T15:38:41.388Z,17.5
2022-11-13T15:40:59.706Z,17.7
2022-11-13T15:43:18.039Z,17.8
2022-11-13T15:45:39.953Z,17.6
2022-11-13T15:47:54.512Z,17.6
2022-11-13T15:50:20.957Z,17.7
2022-11-13T15:52:39.230Z,17.9
2022-11-13T15:54:57.530Z,17.8
2022-11-13T15:57:15.816Z,17.8
2022-11-13T15:59:34.273Z,17.8
2022-11-13T16:01:56.707Z,17.7
2022-11-13T16:04:10.630Z,17.8
2022-11-13T16:06:30.216Z,17.7
2022-11-13T16:08:48.975Z,17.7
2022-11-13T16:11:07.194Z,18.5
2022-11-13T16:13:25.620Z,17.6
2022-11-13T16:15:43.740Z,17.7
2022-11-13T16:18:02.148Z,17.8
2022-11-13T16:20:20.275Z,17.7
2022-11-13T16:22:38.597Z,17.7
2022-11-13T16:24:56.813Z,17.8
2022-11-13T16:27:15.137Z,17.8
2022-11-13T16:29:45.646Z,17.8
2022-11-13T16:32:04.032Z,17.8
2022-11-13T16:34:22.243Z,17.7
2022-11-13T16:36:40.498Z,17.6
2022-11-13T16:38:58.783Z,17.6
2022-11-13T16:41:17.081Z,17.4
2022-11-13T16:43:35.354Z,17.4
2022-11-13T16:45:53.640Z,17.3
2022-11-13T16:48:11.993Z,17.3
2022-11-13T16:50:30.768Z,17.2
2022-11-13T16:52:49.495Z,18.3
2022-11-13T16:55:08.408Z,18.4
2022-11-13T16:57:26.841Z,18.4
2022-11-13T16:59:44.929Z,17.1
2022-11-13T17:02:03.358Z,16.8
2022-11-13T17:04:21.609Z,17.2
2022-11-13T17:08:58.781Z,17.2
2022-11-13T17:11:33.964Z,18.4
2022-11-13T17:13:52.201Z,17.1
2022-11-13T17:16:10.596Z,16.8
2022-11-13T17:18:28.771Z,17.1
2022-11-13T17:20:47.176Z,17.1
2022-11-13T17:23:05.574Z,16.9
2022-11-13T17:25:23.853Z,17.1
2022-11-13T17:27:42.130Z,17.1
2022-11-13T17:30:00.438Z,17.1
2022-11-13T17:32:18.663Z,17.1
2022-11-13T17:34:36.967Z,17.1
2022-11-13T17:36:55.582Z,16.8
2022-11-13T17:39:13.641Z,16.9
2022-11-13T17:41:31.995Z,17.1
2022-11-13T17:43:50.695Z,17.1
2022-11-13T17:46:09.708Z,18.2
2022-11-13T17:48:28.401Z,18.2
2022-11-13T17:50:46.607Z,18.4
2022-11-13T17:53:04.849Z,17.1
2022-11-13T17:55:23.268Z,16.9
2022-11-13T17:57:41.540Z,16.9
2022-11-13T17:59:59.697Z,16.9
2022-11-13T18:04:36.173Z,17.1
2022-11-13T18:06:54.568Z,17.2
2022-11-13T18:09:12.716Z,17.1
2022-11-13T18:11:31.109Z,17.1
2022-11-13T18:13:49.317Z,16.9
2022-11-13T18:16:07.318Z,16.8
2022-11-13T18:18:25.557Z,16.9
2022-11-13T18:20:43.894Z,17.1
2022-11-13T18:25:23.284Z,18.4
2022-11-13T18:27:41.568Z,18.3
2022-11-13T18:32:19.339Z,18.3
2022-11-13T18:34:38.108Z,18.4
2022-11-13T18:36:56.175Z,18.1
2022-11-13T18:39:16.705Z,17.1
2022-11-13T18:41:32.553Z,16.9
2022-11-13T18:43:51.153Z,16.7
2022-11-13T18:46:09.286Z,16.9
2022-11-13T18:50:46.343Z,16.7
2022-11-13T18:53:04.460Z,16.8
2022-11-13T18:55:22.831Z,17.1
2022-11-13T18:57:41.110Z,17.1
2022-11-13T18:59:59.499Z,16.8
2022-11-13T19:02:17.921Z,16.9
2022-11-13T19:07:13.227Z,16.9
2022-11-13T19:11:49.570Z,16.9
2022-11-13T19:14:08.000Z,16.9
2022-11-13T19:16:26.304Z,16.9
2022-11-13T19:18:44.861Z,16.9
2022-11-13T19:21:03.144Z,17.1
2022-11-13T19:23:21.485Z,17.1
2022-11-13T19:25:39.856Z,17.2
2022-11-13T19:27:58.158Z,17.3
2022-11-13T19:30:16.600Z,16.9
2022-11-13T19:32:34.997Z,16.8
2022-11-13T19:34:53.385Z,17.9
2022-11-13T19:37:14.995Z,16.7
2022-11-13T19:39:29.532Z,16.9
2022-11-13T19:41:48.255Z,16.8
2022-11-13T19:44:06.733Z,17.9
2022-11-13T19:46:24.637Z,16.7
2022-11-13T19:48:42.784Z,16.8
2022-11-13T19:51:01.000Z,16.7
2022-11-13T19:53:19.736Z,16.9
2022-11-13T19:55:38.697Z,17.9
2022-11-13T19:57:56.838Z,18.2
2022-11-13T20:00:14.971Z,16.8
2022-11-13T20:02:33.197Z,16.6
2022-11-13T20:04:51.286Z,16.6
2022-11-13T20:07:09.401Z,16.8
2022-11-13T20:09:28.136Z,16.6
2022-11-13T20:11:47.187Z,18
2022-11-13T20:14:05.395Z,18.1
2022-11-13T20:16:23.803Z,16.6
2022-11-13T20:18:41.501Z,16.8
2022-11-13T20:20:59.649Z,16.4
2022-11-13T20:23:18.304Z,16.7
2022-11-13T20:25:36.538Z,17.9
2022-11-13T20:27:54.734Z,16.7
2022-11-13T20:30:13.532Z,16.6
2022-11-13T20:32:31.672Z,17.9
2022-11-13T20:34:49.715Z,16.9
2022-11-13T20:37:07.871Z,16.5
2022-11-13T20:39:26.061Z,16.8
2022-11-13T20:41:44.852Z,16.6
2022-11-13T20:44:03.752Z,18
2022-11-13T20:46:21.952Z,17.9
2022-11-13T20:48:40.070Z,16.7
2022-11-13T20:50:58.175Z,16.6
2022-11-13T20:53:16.994Z,16.8
2022-11-13T20:55:35.156Z,17.8
2022-11-13T20:57:53.254Z,16.6
2022-11-13T21:00:11.490Z,16.4
2022-11-13T21:02:29.797Z,16.8
2022-11-13T21:04:47.699Z,16.5
2022-11-13T21:07:05.895Z,16.6
2022-11-13T21:09:24.139Z,16.6
2022-11-13T21:11:42.200Z,16.6
2022-11-13T21:14:00.455Z,16.6
2022-11-13T21:16:18.698Z,16.6
2022-11-13T21:18:37.673Z,16.6
2022-11-13T21:20:55.796Z,17.8
2022-11-13T21:23:14.195Z,16.7
2022-11-13T21:25:33.039Z,16.5
2022-11-13T21:27:51.256Z,17.8
2022-11-13T21:30:09.642Z,16.6
2022-11-13T21:32:27.837Z,16.6
2022-11-13T21:34:46.057Z,16.6
2022-11-13T21:37:04.775Z,16.5
2022-11-13T21:39:23.210Z,17.7
2022-11-13T21:41:41.370Z,16.3
2022-11-13T21:43:59.744Z,16.4
2022-11-13T21:46:17.920Z,16.4
2022-11-13T21:48:36.779Z,16.4
2022-11-13T21:50:55.143Z,16.3
2022-11-13T21:53:13.358Z,17.8
2022-11-13T21:55:31.663Z,16.5
2022-11-13T21:57:50.389Z,16.3
2022-11-13T22:00:08.903Z,17.7
2022-11-13T22:02:27.177Z,16.4
2022-11-13T22:04:45.640Z,16.4
2022-11-13T22:07:03.605Z,16.6
2022-11-13T22:09:21.955Z,16.6
2022-11-13T22:11:40.091Z,16.4
2022-11-13T22:13:58.138Z,16.3
2022-11-13T22:16:16.600Z,16.6
2022-11-13T22:18:34.632Z,16.4
2022-11-13T22:20:53.232Z,16.3
2022-11-13T22:23:11.235Z,16.4
2022-11-13T22:25:29.529Z,16.3
2022-11-13T22:27:47.737Z,16.4
2022-11-13T22:30:06.774Z,16.4
2022-11-13T22:32:25.003Z,17.6
2022-11-13T22:34:43.572Z,16.5
2022-11-13T22:37:01.730Z,16.4
2022-11-13T22:39:19.634Z,16.4
2022-11-13T22:41:37.952Z,16.3
2022-11-13T22:43:56.176Z,16.4
2022-11-13T22:46:26.170Z,16.1
2022-11-13T22:48:44.317Z,16.3
2022-11-13T22:51:02.444Z,16.3
2022-11-13T22:53:20.651Z,16.3
2022-11-13T22:55:38.635Z,16.1
2022-11-13T22:57:56.980Z,16.3
2022-11-13T23:00:15.195Z,16.3
2022-11-13T23:02:33.114Z,16.3
2022-11-13T23:04:51.236Z,16.1
2022-11-13T23:07:09.525Z,16.4
2022-11-13T23:09:28.393Z,16.3
2022-11-13T23:11:47.210Z,17.5
2022-11-13T23:14:05.270Z,17.9
2022-11-13T23:16:24.135Z,16.2
2022-11-13T23:18:42.310Z,17.8
2022-11-13T23:21:01.259Z,16.3
2022-11-13T23:23:19.539Z,17.6
2022-11-13T23:25:37.676Z,16.4
2022-11-13T23:27:55.738Z,16.3
2022-11-13T23:30:13.835Z,16.3
2022-11-13T23:32:32.036Z,16.4
2022-11-13T23:35:03.163Z,16.5
2022-11-13T23:37:21.299Z,16.3
2022-11-13T23:39:39.410Z,16.1
2022-11-13T23:41:58.319Z,16.1
2022-11-13T23:44:44.514Z,17.6
2022-11-13T23:47:03.430Z,17.4
2022-11-13T23:49:21.714Z,17.4
2022-11-13T23:51:39.838Z,16.1
2022-11-13T23:53:58.017Z,16.4
2022-11-13T23:56:16.279Z,16
2022-11-13T23:58:35.351Z,16.1
